Time;durP1;ratioP1;P1;durP2;ratioP2;P2;SDS_P1;SDS_P2;PMS_P1;PMS_P2;Temp;Humidity;BMP_temperature;BMP_pressure;BME280_temperature;BME280_humidity;BME280_pressure;Samples;Min_cycle;Max_cycle;Signal;HPM_P1;HPM_P2
2021/12/29 00:01:24;;;;;;;27.27;10.05;;;6.00;99.90;;;;;;5072078;28;20550;-53
2021/12/29 00:03:50;;;;;;;23.90;10.52;;;6.00;99.90;;;;;;5072040;28;20400;-50
2021/12/29 00:06:15;;;;;;;26.42;10.38;;;6.00;99.90;;;;;;5071892;28;20044;-50
2021/12/29 00:08:42;;;;;;;18.90;9.57;;;5.90;99.90;;;;;;5071788;28;20093;-51
2021/12/29 00:11:08;;;;;;;25.00;9.70;;;5.90;99.90;;;;;;5071721;28;20041;-49
2021/12/29 00:13:33;;;;;;;23.42;9.82;;;6.00;99.90;;;;;;5071561;28;20049;-52
2021/12/29 00:16:00;;;;;;;20.73;9.20;;;6.10;99.90;;;;;;5071826;28;20040;-48
2021/12/29 00:18:28;;;;;;;25.15;10.27;;;6.10;99.90;;;;;;5071821;28;20147;-62
2021/12/29 00:20:55;;;;;;;26.20;9.65;;;6.10;99.90;;;;;;5071628;28;20494;-62
2021/12/29 00:23:22;;;;;;;28.40;9.45;;;6.10;99.90;;;;;;5071542;28;20111;-62
2021/12/29 00:25:48;;;;;;;31.58;9.77;;;6.10;99.90;;;;;;5071403;28;20464;-62
2021/12/29 00:28:14;;;;;;;33.92;10.60;;;6.00;99.90;;;;;;5071665;28;20060;-50
2021/12/29 00:30:41;;;;;;;41.92;11.07;;;6.00;99.90;;;;;;5071506;28;20381;-52
2021/12/29 00:33:07;;;;;;;38.25;11.52;;;6.00;99.90;;;;;;5075333;28;20122;-50
2021/12/29 00:35:34;;;;;;;38.42;11.10;;;6.00;99.90;;;;;;5073979;28;20040;-62
2021/12/29 00:38:02;;;;;;;40.22;11.35;;;6.00;99.90;;;;;;5075729;28;20068;-60
2021/12/29 00:40:28;;;;;;;43.53;11.43;;;6.10;99.90;;;;;;5074982;28;20047;-61
2021/12/29 00:42:55;;;;;;;72.07;13.90;;;6.10;99.90;;;;;;5075213;28;20040;-54
2021/12/29 00:45:20;;;;;;;48.60;13.77;;;6.10;99.90;;;;;;5075128;28;20052;-53
2021/12/29 00:47:48;;;;;;;77.95;15.18;;;6.20;99.90;;;;;;5075055;28;20092;-61
2021/12/29 00:50:15;;;;;;;50.30;14.15;;;6.20;99.90;;;;;;5068015;28;20409;-62
2021/12/29 00:52:42;;;;;;;51.95;15.15;;;6.20;99.90;;;;;;5054992;28;20045;-62
2021/12/29 00:55:08;;;;;;;48.53;15.68;;;6.30;99.90;;;;;;5065836;28;20083;-62
2021/12/29 00:57:34;;;;;;;51.20;15.25;;;6.30;99.90;;;;;;5074586;28;20131;-61
2021/12/29 01:00:00;;;;;;;43.58;14.80;;;6.30;99.90;;;;;;5075019;28;20119;-61
2021/12/29 01:02:26;;;;;;;42.30;15.60;;;6.40;99.90;;;;;;5074595;28;20503;-61
2021/12/29 01:04:51;;;;;;;56.10;17.63;;;6.40;99.90;;;;;;5073457;28;20124;-61
2021/12/29 01:07:17;;;;;;;54.03;16.90;;;6.30;99.90;;;;;;5074376;28;20048;-61
2021/12/29 01:09:44;;;;;;;53.83;15.23;;;6.30;99.90;;;;;;5074397;28;20040;-61
2021/12/29 01:12:11;;;;;;;50.60;16.55;;;6.40;99.90;;;;;;5074740;28;20075;-49
2021/12/29 01:14:41;;;;;;;50.83;15.88;;;6.30;99.90;;;;;;5074873;28;20435;-61
2021/12/29 01:17:07;;;;;;;54.95;15.95;;;6.30;99.90;;;;;;5074708;28;20425;-61
2021/12/29 01:19:33;;;;;;;55.47;17.55;;;6.30;99.90;;;;;;5074438;28;20101;-61
2021/12/29 01:22:02;;;;;;;58.33;17.02;;;6.30;99.90;;;;;;5074435;28;20037;-61
2021/12/29 01:24:30;;;;;;;53.90;16.85;;;6.30;99.90;;;;;;5073177;28;20063;-61
2021/12/29 01:26:57;;;;;;;59.80;17.42;;;6.30;99.90;;;;;;5074656;28;20049;-48
2021/12/29 01:29:26;;;;;;;69.20;17.55;;;6.30;99.90;;;;;;5074324;28;20044;-49
2021/12/29 01:31:52;;;;;;;57.50;16.08;;;6.30;99.90;;;;;;5073327;28;20033;-61
2021/12/29 01:34:17;;;;;;;54.17;15.90;;;6.30;99.90;;;;;;5074217;28;20035;-60
2021/12/29 01:36:43;;;;;;;63.08;17.58;;;6.30;99.90;;;;;;5073974;28;20036;-61
2021/12/29 01:39:14;;;;;;;62.35;17.30;;;6.30;99.90;;;;;;5072884;28;20040;-47
2021/12/29 01:41:40;;;;;;;50.75;17.05;;;6.40;99.90;;;;;;5073899;28;20041;-48
2021/12/29 01:44:08;;;;;;;57.67;17.05;;;6.30;99.90;;;;;;5073907;28;20036;-49
2021/12/29 01:46:34;;;;;;;59.85;18.40;;;6.40;99.90;;;;;;5074050;28;20252;-49
2021/12/29 01:49:01;;;;;;;79.70;18.85;;;6.40;99.90;;;;;;5072193;28;20443;-48
2021/12/29 01:51:26;;;;;;;81.07;20.30;;;6.40;99.90;;;;;;5056645;28;20048;-52
2021/12/29 01:56:37;;;;;;;63.05;18.15;;;6.40;99.90;;;;;;5073844;28;20400;-49
2021/12/29 01:59:03;;;;;;;67.50;17.48;;;6.50;99.90;;;;;;5073775;28;20080;-50
2021/12/29 02:01:29;;;;;;;59.75;17.70;;;6.40;99.90;;;;;;5073583;28;20068;-49
2021/12/29 02:03:55;;;;;;;57.55;17.98;;;6.40;99.90;;;;;;5073342;28;20444;-60
2021/12/29 02:06:21;;;;;;;56.28;17.42;;;6.40;99.90;;;;;;5073597;28;20048;-61
2021/12/29 02:08:47;;;;;;;51.67;16.85;;;6.50;99.90;;;;;;5073346;28;20040;-60
2021/12/29 02:11:13;;;;;;;58.42;17.80;;;6.40;99.90;;;;;;5073529;28;20036;-61
2021/12/29 02:13:38;;;;;;;62.03;16.17;;;6.40;99.90;;;;;;5073398;28;20043;-61
2021/12/29 02:16:04;;;;;;;59.15;15.85;;;6.50;99.90;;;;;;5073357;28;20040;-61
2021/12/29 02:18:31;;;;;;;60.20;15.60;;;6.40;99.90;;;;;;5073382;28;20043;-60
2021/12/29 02:20:56;;;;;;;57.28;14.25;;;6.40;99.90;;;;;;5073163;28;20040;-60
2021/12/29 02:23:46;;;;;;;54.40;13.50;;;6.50;99.90;;;;;;5073348;28;21197;-62
2021/12/29 02:26:13;;;;;;;45.67;12.15;;;6.40;99.90;;;;;;5073074;28;20040;-61
2021/12/29 02:28:41;;;;;;;53.38;11.63;;;6.40;99.90;;;;;;5072906;28;20393;-61
2021/12/29 02:31:07;;;;;;;55.35;12.25;;;6.40;99.90;;;;;;5073188;28;20033;-61
2021/12/29 02:33:34;;;;;;;48.17;11.70;;;6.50;99.90;;;;;;5071910;28;20041;-61
2021/12/29 02:36:01;;;;;;;54.78;12.10;;;6.50;99.90;;;;;;5073034;28;20049;-61
2021/12/29 02:38:34;;;;;;;50.92;12.35;;;6.50;99.90;;;;;;5072776;28;20584;-61
2021/12/29 02:41:05;;;;;;;46.80;12.18;;;6.50;99.90;;;;;;5072819;28;20076;-48
2021/12/29 02:43:36;;;;;;;55.17;11.15;;;6.50;99.90;;;;;;5073114;28;20037;-48
2021/12/29 02:46:02;;;;;;;53.67;12.30;;;6.60;99.90;;;;;;5072992;28;20051;-53
2021/12/29 02:48:34;;;;;;;48.85;12.35;;;6.70;99.90;;;;;;5072580;28;20115;-48
2021/12/29 02:51:00;;;;;;;45.88;12.00;;;6.60;99.90;;;;;;5059227;28;20433;-61
2021/12/29 02:53:27;;;;;;;41.63;11.23;;;6.60;99.90;;;;;;5051994;28;20072;-61
2021/12/29 02:55:53;;;;;;;41.13;10.70;;;6.60;99.90;;;;;;5069918;28;20036;-61
2021/12/29 02:58:21;;;;;;;40.63;11.27;;;6.60;99.90;;;;;;5072483;28;20044;-61
2021/12/29 03:00:47;;;;;;;40.70;11.13;;;6.70;99.90;;;;;;5072513;28;20115;-61
2021/12/29 03:03:17;;;;;;;43.28;12.18;;;6.70;99.90;;;;;;5072285;28;20039;-61
2021/12/29 03:05:43;;;;;;;45.78;12.75;;;6.70;99.90;;;;;;5072338;28;20036;-61
2021/12/29 03:08:09;;;;;;;45.78;12.45;;;6.80;99.90;;;;;;5072322;28;20405;-61
2021/12/29 03:10:35;;;;;;;52.13;14.93;;;6.70;99.90;;;;;;5072229;28;20389;-61
2021/12/29 03:13:01;;;;;;;41.42;12.90;;;6.70;99.90;;;;;;5072428;28;20039;-60
2021/12/29 03:15:26;;;;;;;43.60;12.82;;;6.70;99.90;;;;;;5070902;28;20048;-61
2021/12/29 03:17:52;;;;;;;53.97;14.27;;;6.60;99.90;;;;;;5072338;28;20051;-51
2021/12/29 03:20:18;;;;;;;55.72;14.75;;;6.70;99.90;;;;;;5072206;28;20036;-48
2021/12/29 03:22:43;;;;;;;51.28;15.00;;;6.70;99.90;;;;;;5072100;28;20040;-51
2021/12/29 03:25:09;;;;;;;51.13;15.18;;;6.70;99.90;;;;;;5072033;28;20044;-50
2021/12/29 03:27:34;;;;;;;43.15;15.30;;;6.60;99.90;;;;;;5072263;28;20076;-49
2021/12/29 03:30:00;;;;;;;63.55;16.67;;;6.70;99.90;;;;;;5072335;28;20123;-53
2021/12/29 03:32:39;;;;;;;47.65;14.63;;;6.70;99.90;;;;;;5072195;28;20042;-50
2021/12/29 03:35:05;;;;;;;46.78;15.43;;;6.70;99.90;;;;;;5071856;28;20060;-53
2021/12/29 03:37:30;;;;;;;50.40;15.52;;;6.80;99.90;;;;;;5071944;28;20473;-53
2021/12/29 03:39:56;;;;;;;48.10;15.57;;;6.80;99.90;;;;;;5072059;28;20040;-51
2021/12/29 03:42:22;;;;;;;57.92;15.73;;;6.80;99.90;;;;;;5072377;28;20044;-60
2021/12/29 03:44:47;;;;;;;52.92;15.07;;;6.80;99.90;;;;;;5070994;28;20140;-50
2021/12/29 03:47:13;;;;;;;58.55;16.40;;;6.70;99.90;;;;;;5071979;28;20037;-61
2021/12/29 03:49:39;;;;;;;54.05;15.48;;;6.70;99.90;;;;;;5069573;28;20408;-61
2021/12/29 03:52:05;;;;;;;55.25;15.77;;;6.70;99.90;;;;;;5051496;28;20092;-50
2021/12/29 03:54:32;;;;;;;57.78;17.05;;;6.70;99.90;;;;;;5058473;28;20112;-51
2021/12/29 03:57:01;;;;;;;47.65;15.25;;;6.80;99.90;;;;;;5072000;28;20133;-48
2021/12/29 03:59:27;;;;;;;47.15;15.27;;;6.80;99.90;;;;;;5070479;28;20101;-49
2021/12/29 04:01:53;;;;;;;44.58;15.45;;;6.80;99.90;;;;;;5071816;28;20036;-48
2021/12/29 04:04:20;;;;;;;42.47;14.93;;;6.80;99.90;;;;;;5070591;28;20054;-50
2021/12/29 04:06:46;;;;;;;36.97;14.15;;;6.90;99.90;;;;;;5074134;28;20102;-48
2021/12/29 04:09:13;;;;;;;49.38;15.50;;;6.80;99.90;;;;;;5075783;28;20043;-49
2021/12/29 04:11:39;;;;;;;38.35;15.02;;;6.80;99.90;;;;;;5076044;28;20442;-61
2021/12/29 04:14:05;;;;;;;49.67;15.50;;;6.80;99.90;;;;;;5075867;28;20039;-61
2021/12/29 04:16:35;;;;;;;42.30;15.52;;;6.80;99.90;;;;;;5075837;28;20433;-60
2021/12/29 04:19:14;;;;;;;43.25;16.80;;;6.90;99.90;;;;;;5075978;28;20033;-61
2021/12/29 04:21:43;;;;;;;48.10;16.08;;;6.90;99.90;;;;;;5076024;28;20048;-50
2021/12/29 04:24:09;;;;;;;46.35;16.40;;;6.80;99.90;;;;;;5075766;28;20048;-61
2021/12/29 04:26:37;;;;;;;42.58;18.08;;;6.90;99.90;;;;;;5075608;28;20052;-60
2021/12/29 04:29:08;;;;;;;43.72;17.92;;;6.80;99.90;;;;;;5075581;28;20121;-62
2021/12/29 04:31:34;;;;;;;45.15;17.27;;;6.90;99.90;;;;;;5075384;28;20044;-61
2021/12/29 04:33:59;;;;;;;47.88;18.02;;;6.90;99.90;;;;;;5074163;28;20044;-61
2021/12/29 04:36:25;;;;;;;47.80;17.98;;;6.90;99.90;;;;;;5075597;28;20093;-61
2021/12/29 04:38:53;;;;;;;46.72;18.05;;;6.80;99.90;;;;;;5075246;28;20087;-61
2021/12/29 04:41:20;;;;;;;44.35;15.98;;;6.90;99.90;;;;;;5075285;28;20097;-48
2021/12/29 04:43:45;;;;;;;43.80;16.45;;;6.90;99.90;;;;;;5074963;28;20101;-60
2021/12/29 04:46:15;;;;;;;42.72;16.35;;;6.80;99.90;;;;;;5074989;28;20504;-61
2021/12/29 04:48:47;;;;;;;45.83;16.58;;;7.00;99.90;;;;;;5073508;28;20048;-60
2021/12/29 04:51:15;;;;;;;42.67;14.20;;;6.90;99.90;;;;;;5059802;28;20138;-61
2021/12/29 04:53:43;;;;;;;38.63;14.23;;;6.90;99.90;;;;;;5055079;28;20052;-61
2021/12/29 04:56:09;;;;;;;43.80;14.98;;;7.00;99.90;;;;;;5074821;28;20037;-61
2021/12/29 04:58:34;;;;;;;44.00;15.88;;;7.00;99.90;;;;;;5074715;28;20048;-61
2021/12/29 05:01:00;;;;;;;41.47;15.05;;;6.90;99.90;;;;;;5074710;28;20365;-61
2021/12/29 05:03:26;;;;;;;48.10;15.70;;;7.00;99.90;;;;;;5074902;28;20075;-58
2021/12/29 05:08:33;;;;;;;43.05;14.98;;;7.00;99.90;;;;;;5074654;28;20045;-60
2021/12/29 05:11:01;;;;;;;42.42;15.60;;;7.00;99.90;;;;;;5074553;28;20120;-61
2021/12/29 05:13:29;;;;;;;44.08;16.20;;;7.00;99.90;;;;;;5074533;28;20044;-49
2021/12/29 05:15:55;;;;;;;47.00;17.20;;;7.00;99.90;;;;;;5074812;28;20037;-48
2021/12/29 05:18:27;;;;;;;45.72;16.70;;;7.00;99.90;;;;;;5073678;28;20033;-49
2021/12/29 05:20:53;;;;;;;43.13;16.00;;;7.00;99.90;;;;;;5073291;28;20036;-49
2021/12/29 05:23:20;;;;;;;40.75;17.40;;;7.00;99.90;;;;;;5074431;28;20370;-50
2021/12/29 05:25:46;;;;;;;42.88;16.83;;;7.00;99.90;;;;;;5074355;28;20040;-48
2021/12/29 05:28:12;;;;;;;46.78;17.10;;;7.00;99.90;;;;;;5074604;28;20040;-49
2021/12/29 05:30:38;;;;;;;44.88;16.35;;;7.00;99.90;;;;;;5074313;28;20115;-48
2021/12/29 05:33:04;;;;;;;38.90;16.50;;;7.00;99.90;;;;;;5074508;28;20136;-50
2021/12/29 05:35:30;;;;;;;40.63;16.52;;;7.00;99.90;;;;;;5074314;28;20613;-52
2021/12/29 05:37:56;;;;;;;36.65;14.95;;;7.00;99.90;;;;;;5074232;28;20036;-49
2021/12/29 05:40:23;;;;;;;34.50;15.38;;;7.00;99.90;;;;;;5073986;28;20036;-49
2021/12/29 05:42:49;;;;;;;45.00;15.90;;;7.00;99.90;;;;;;5074252;28;20040;-62
2021/12/29 05:45:15;;;;;;;40.25;15.98;;;7.00;99.90;;;;;;5074134;28;20071;-62
2021/12/29 05:47:41;;;;;;;38.38;15.50;;;7.00;99.90;;;;;;5072791;28;20075;-61
2021/12/29 05:50:10;;;;;;;38.30;15.82;;;7.00;99.90;;;;;;5067653;28;20057;-62
2021/12/29 05:52:36;;;;;;;37.90;16.38;;;7.00;99.90;;;;;;5053928;28;20049;-62
2021/12/29 05:55:02;;;;;;;46.17;17.00;;;7.00;99.90;;;;;;5065031;28;20044;-62
2021/12/29 05:57:28;;;;;;;38.58;15.80;;;7.00;99.90;;;;;;5073984;28;20598;-62
2021/12/29 05:59:53;;;;;;;37.70;16.80;;;7.00;99.90;;;;;;5074060;28;20180;-60
2021/12/29 06:02:19;;;;;;;38.90;17.13;;;6.90;99.90;;;;;;5072938;28;20056;-62
2021/12/29 06:04:45;;;;;;;41.08;17.38;;;7.00;99.90;;;;;;5073839;28;20404;-62
2021/12/29 06:07:11;;;;;;;43.80;16.88;;;6.90;99.90;;;;;;5073829;28;20040;-62
2021/12/29 06:09:37;;;;;;;39.88;17.42;;;7.00;99.90;;;;;;5073547;28;20129;-62
2021/12/29 06:12:03;;;;;;;40.45;17.00;;;6.90;99.90;;;;;;5072597;28;20497;-62
2021/12/29 06:14:29;;;;;;;42.70;17.10;;;7.00;99.90;;;;;;5073701;28;20041;-62
2021/12/29 06:16:55;;;;;;;36.00;16.15;;;7.00;99.90;;;;;;5073625;28;20166;-62
2021/12/29 06:19:20;;;;;;;37.42;15.55;;;7.00;99.90;;;;;;5073339;28;20039;-62
2021/12/29 06:21:46;;;;;;;38.05;16.98;;;6.90;99.90;;;;;;5073474;28;20043;-62
2021/12/29 06:24:12;;;;;;;47.25;16.10;;;6.90;99.90;;;;;;5073306;28;20547;-62
2021/12/29 06:26:38;;;;;;;43.33;16.00;;;6.90;99.90;;;;;;5073435;28;20488;-61
2021/12/29 06:29:04;;;;;;;49.20;16.15;;;6.90;99.90;;;;;;5072255;28;20045;-50
2021/12/29 06:31:29;;;;;;;42.00;16.13;;;6.90;99.90;;;;;;5073333;28;20090;-50
2021/12/29 06:33:55;;;;;;;47.22;16.08;;;6.90;99.90;;;;;;5073226;28;20477;-49
2021/12/29 06:36:21;;;;;;;38.55;15.70;;;6.90;99.90;;;;;;5073053;28;20079;-51
2021/12/29 06:38:46;;;;;;;48.30;17.52;;;6.90;99.90;;;;;;5072876;28;20044;-53
2021/12/29 06:41:12;;;;;;;40.85;15.93;;;6.90;99.90;;;;;;5073054;28;20036;-50
2021/12/29 06:43:38;;;;;;;55.42;18.40;;;6.90;99.90;;;;;;5072855;28;20485;-48
2021/12/29 06:46:03;;;;;;;50.22;16.20;;;6.90;99.90;;;;;;5072906;28;20041;-49
2021/12/29 06:48:29;;;;;;;51.08;16.50;;;6.90;99.90;;;;;;5072842;28;20432;-49
2021/12/29 06:50:55;;;;;;;54.33;18.02;;;6.90;99.90;;;;;;5059971;28;20060;-48
2021/12/29 06:53:20;;;;;;;93.75;21.60;;;7.00;99.90;;;;;;5052861;28;20040;-48
2021/12/29 06:55:46;;;;;;;55.63;17.40;;;7.00;99.90;;;;;;5070390;28;20385;-48
2021/12/29 06:58:12;;;;;;;61.28;17.90;;;7.00;99.90;;;;;;5072880;28;20032;-48
2021/12/29 07:00:39;;;;;;;79.55;18.85;;;7.00;99.90;;;;;;5072487;28;20045;-47
2021/12/29 07:03:05;;;;;;;100.65;19.65;;;7.00;99.90;;;;;;5071435;28;20843;-48
2021/12/29 07:05:31;;;;;;;74.90;18.40;;;7.00;99.90;;;;;;5072272;28;20044;-48
2021/12/29 07:07:57;;;;;;;106.68;21.00;;;7.00;99.90;;;;;;5070715;28;20094;-49
2021/12/29 07:10:23;;;;;;;88.43;17.70;;;7.00;99.90;;;;;;5070920;28;20052;-49
2021/12/29 07:12:49;;;;;;;87.15;17.77;;;7.00;99.90;;;;;;5071108;28;20129;-53
2021/12/29 07:15:16;;;;;;;121.03;21.25;;;7.00;99.90;;;;;;5070834;28;20064;-48
2021/12/29 07:17:42;;;;;;;96.10;20.58;;;7.00;99.90;;;;;;5069504;28;20044;-48
2021/12/29 07:20:08;;;;;;;75.18;18.77;;;7.10;99.90;;;;;;5070731;28;20430;-48
2021/12/29 07:22:33;;;;;;;104.60;20.77;;;7.00;99.90;;;;;;5070558;28;20480;-50
2021/12/29 07:24:59;;;;;;;71.55;18.15;;;7.00;99.90;;;;;;5070798;28;20048;-47
2021/12/29 07:27:25;;;;;;;103.78;20.27;;;7.00;99.90;;;;;;5070606;28;20072;-52
2021/12/29 07:29:52;;;;;;;62.95;17.88;;;7.00;99.90;;;;;;5069640;28;20039;-49
2021/12/29 07:32:18;;;;;;;57.00;16.75;;;7.00;99.90;;;;;;5069806;28;20036;-47
2021/12/29 07:34:44;;;;;;;55.90;16.38;;;7.00;99.90;;;;;;5070432;28;20044;-47
2021/12/29 07:37:11;;;;;;;58.55;15.80;;;7.00;99.90;;;;;;5069722;28;20028;-48
2021/12/29 07:39:37;;;;;;;74.03;18.05;;;7.00;99.90;;;;;;5070171;28;20044;-48
2021/12/29 07:42:03;;;;;;;62.70;17.50;;;7.10;99.90;;;;;;5070438;28;20110;-48
2021/12/29 07:44:29;;;;;;;60.35;16.50;;;7.10;99.90;;;;;;5070241;28;20088;-51
2021/12/29 07:46:57;;;;;;;57.28;15.70;;;7.10;99.90;;;;;;5069296;28;20052;-48
2021/12/29 07:49:23;;;;;;;55.13;15.07;;;7.10;99.90;;;;;;5070433;28;20075;-49
2021/12/29 07:51:51;;;;;;;48.80;15.45;;;7.00;99.90;;;;;;5029985;28;20081;-52
2021/12/29 07:54:17;;;;;;;51.28;14.48;;;7.10;99.90;;;;;;5039342;28;20044;-53
2021/12/29 07:56:44;;;;;;;51.58;15.30;;;7.10;99.90;;;;;;5070605;28;20415;-51
2021/12/29 07:59:10;;;;;;;43.42;12.85;;;7.10;99.90;;;;;;5070390;28;20067;-52
2021/12/29 08:01:36;;;;;;;41.67;13.45;;;7.10;99.90;;;;;;5070387;28;20040;-52
2021/12/29 08:04:02;;;;;;;40.95;14.05;;;7.00;99.90;;;;;;5070278;28;20481;-51
2021/12/29 08:06:28;;;;;;;31.98;13.18;;;7.10;99.90;;;;;;5070452;28;20044;-50
2021/12/29 08:08:54;;;;;;;35.40;12.32;;;7.10;99.90;;;;;;5059537;28;20050;-53
2021/12/29 08:11:20;;;;;;;35.33;12.95;;;7.10;99.90;;;;;;5033262;28;20185;-50
2021/12/29 08:13:46;;;;;;;33.72;13.50;;;7.10;99.90;;;;;;5055491;28;20044;-49
2021/12/29 08:16:12;;;;;;;43.35;13.70;;;7.20;99.90;;;;;;5035996;28;20050;-53
2021/12/29 08:18:38;;;;;;;31.17;12.30;;;7.10;99.90;;;;;;5028693;28;20048;-48
2021/12/29 08:21:04;;;;;;;44.33;13.77;;;7.20;99.90;;;;;;5030417;28;20056;-47
2021/12/29 08:23:31;;;;;;;61.78;15.60;;;7.20;99.90;;;;;;5030301;28;20069;-49
2021/12/29 08:25:57;;;;;;;44.08;15.40;;;7.20;99.90;;;;;;5028792;28;20084;-50
2021/12/29 08:28:23;;;;;;;55.10;17.10;;;7.20;99.90;;;;;;5030269;28;20045;-48
2021/12/29 08:30:50;;;;;;;52.28;17.15;;;7.20;99.90;;;;;;5030151;28;20378;-48
2021/12/29 08:33:16;;;;;;;52.83;16.25;;;7.20;99.90;;;;;;5030056;28;20481;-50
2021/12/29 08:35:41;;;;;;;48.50;15.75;;;7.20;99.90;;;;;;5030063;28;20044;-48
2021/12/29 08:38:07;;;;;;;64.15;17.13;;;7.20;99.90;;;;;;5030294;28;20037;-48
2021/12/29 08:40:33;;;;;;;52.03;15.88;;;7.30;99.90;;;;;;5030180;28;20041;-62
2021/12/29 08:43:01;;;;;;;72.82;19.00;;;7.20;99.90;;;;;;5030180;28;20048;-62
2021/12/29 08:45:28;;;;;;;54.38;16.45;;;7.30;99.90;;;;;;5029976;28;20057;-62
2021/12/29 08:47:58;;;;;;;74.03;17.73;;;7.20;99.90;;;;;;5029922;28;20041;-62
2021/12/29 08:50:26;;;;;;;61.92;17.10;;;7.30;99.90;;;;;;5038154;28;20049;-62
2021/12/29 08:52:52;;;;;;;71.20;17.55;;;7.20;99.90;;;;;;5051560;28;20087;-62
2021/12/29 08:55:18;;;;;;;60.83;16.88;;;7.30;99.90;;;;;;5066336;28;20515;-63
2021/12/29 08:57:43;;;;;;;58.55;17.02;;;7.30;99.90;;;;;;5073572;28;20041;-63
2021/12/29 09:00:13;;;;;;;94.88;18.05;;;7.30;99.90;;;;;;5072168;28;20037;-62
2021/12/29 09:02:40;;;;;;;68.53;16.95;;;7.20;99.90;;;;;;5073368;28;20393;-62
2021/12/29 09:05:08;;;;;;;71.32;16.85;;;7.20;99.90;;;;;;5073353;28;20053;-62
2021/12/29 09:07:33;;;;;;;68.57;15.93;;;7.30;99.90;;;;;;5073463;28;20098;-62
2021/12/29 09:10:00;;;;;;;68.03;15.73;;;7.30;99.90;;;;;;5071963;28;20044;-62
2021/12/29 09:12:26;;;;;;;48.65;14.90;;;7.40;99.90;;;;;;5073403;28;20047;-62
2021/12/29 09:14:52;;;;;;;51.03;16.60;;;7.40;99.90;;;;;;5073173;28;20108;-63
2021/12/29 09:17:18;;;;;;;65.50;15.18;;;7.40;99.90;;;;;;5073156;28;20451;-62
2021/12/29 09:19:45;;;;;;;49.33;14.35;;;7.30;99.90;;;;;;5073524;28;20097;-62
2021/12/29 09:22:12;;;;;;;86.90;16.55;;;7.30;99.90;;;;;;5073190;28;20047;-62
2021/12/29 09:24:39;;;;;;;43.97;14.00;;;7.30;99.90;;;;;;5073477;28;20122;-62
2021/12/29 09:27:05;;;;;;;46.13;13.95;;;7.40;99.90;;;;;;5073060;28;20063;-62
2021/12/29 09:29:33;;;;;;;60.90;13.68;;;7.40;99.90;;;;;;5072977;28;20083;-62
2021/12/29 09:32:01;;;;;;;97.80;15.35;;;7.40;99.90;;;;;;5071900;28;20435;-62
2021/12/29 09:34:26;;;;;;;71.93;15.10;;;7.40;99.90;;;;;;5073090;28;20044;-62
2021/12/29 09:36:52;;;;;;;38.63;11.75;;;7.40;99.90;;;;;;5072930;28;20043;-63
2021/12/29 09:39:18;;;;;;;44.17;12.98;;;7.40;99.90;;;;;;5071619;28;20045;-62
2021/12/29 09:41:43;;;;;;;48.72;13.15;;;7.40;99.90;;;;;;5072777;28;20425;-62
2021/12/29 09:44:10;;;;;;;40.28;12.07;;;7.40;99.90;;;;;;5072495;28;20033;-63
2021/12/29 09:46:38;;;;;;;46.80;11.63;;;7.50;99.90;;;;;;5072626;28;20053;-62
2021/12/29 09:49:04;;;;;;;39.15;11.85;;;7.50;99.90;;;;;;5072620;28;20048;-62
2021/12/29 09:51:30;;;;;;;58.17;13.27;;;7.60;99.90;;;;;;5054984;28;20474;-62
2021/12/29 09:53:56;;;;;;;30.60;11.05;;;7.50;99.90;;;;;;5054145;28;20116;-63
2021/12/29 09:56:22;;;;;;;36.35;10.75;;;7.60;99.90;;;;;;5072408;28;20397;-62
2021/12/29 09:58:49;;;;;;;34.55;10.65;;;7.70;99.90;;;;;;5072320;28;20036;-49
2021/12/29 10:01:15;;;;;;;31.90;10.93;;;7.70;99.90;;;;;;5052354;28;20717;-48
2021/12/29 10:03:42;;;;;;;35.08;10.52;;;7.70;99.90;;;;;;5042701;28;20114;-47
2021/12/29 10:06:09;;;;;;;32.03;11.30;;;7.70;99.90;;;;;;5042127;28;20113;-62
2021/12/29 10:08:41;;;;;;;37.15;11.32;;;7.70;99.90;;;;;;5049631;28;20052;-63
2021/12/29 10:11:10;;;;;;;28.98;11.65;;;7.70;99.90;;;;;;5053385;28;20444;-48
2021/12/29 10:13:39;;;;;;;29.50;10.38;;;7.70;99.90;;;;;;5053762;28;20459;-48
2021/12/29 10:16:10;;;;;;;30.60;11.10;;;7.70;99.90;;;;;;5053664;28;20075;-48
2021/12/29 10:18:40;;;;;;;27.42;10.68;;;7.70;99.90;;;;;;5053628;28;20045;-49
2021/12/29 10:21:17;;;;;;;29.17;10.88;;;7.80;99.90;;;;;;5053307;28;20052;-52
2021/12/29 10:23:46;;;;;;;27.38;10.23;;;7.90;99.90;;;;;;5053281;28;20068;-51
2021/12/29 10:26:15;;;;;;;29.75;11.10;;;7.70;99.90;;;;;;5052119;28;20052;-50
2021/12/29 10:28:49;;;;;;;25.60;10.30;;;7.90;99.90;;;;;;5053219;28;20041;-50
2021/12/29 10:31:18;;;;;;;27.00;11.07;;;7.90;99.90;;;;;;5053430;28;20052;-51
2021/12/29 10:33:51;;;;;;;24.17;10.77;;;7.90;99.90;;;;;;5053177;28;20060;-49
2021/12/29 10:36:32;;;;;;;28.70;11.05;;;7.90;99.90;;;;;;5045648;28;20034;-48
2021/12/29 10:39:19;;;;;;;25.35;10.65;;;7.90;99.90;;;;;;5043684;28;20048;-48
2021/12/29 10:41:52;;;;;;;21.63;9.35;;;7.90;99.90;;;;;;5044645;28;20037;-48
2021/12/29 10:44:28;;;;;;;24.45;9.50;;;7.90;99.90;;;;;;5043234;28;20052;-48
2021/12/29 10:46:56;;;;;;;25.77;9.23;;;7.90;99.90;;;;;;5037375;28;20044;-53
2021/12/29 10:49:24;;;;;;;24.60;9.80;;;7.90;99.90;;;;;;5032817;28;20053;-50
2021/12/29 10:51:50;;;;;;;23.70;9.20;;;7.90;99.90;;;;;;5047983;28;20065;-53
2021/12/29 10:54:19;;;;;;;20.73;8.02;;;7.90;99.90;;;;;;5041461;28;20040;-50
2021/12/29 10:56:56;;;;;;;20.27;8.98;;;7.90;99.90;;;;;;5072502;28;20044;-51
2021/12/29 10:59:25;;;;;;;26.23;9.65;;;7.90;99.90;;;;;;5071138;28;20135;-51
2021/12/29 11:01:52;;;;;;;26.42;9.50;;;7.90;99.90;;;;;;5072745;28;20040;-49
2021/12/29 11:04:20;;;;;;;18.33;8.27;;;7.90;99.90;;;;;;5072661;28;20404;-49
2021/12/29 11:06:47;;;;;;;22.75;9.20;;;7.90;99.90;;;;;;5072536;28;20102;-63
2021/12/29 11:09:15;;;;;;;22.75;8.73;;;7.90;99.90;;;;;;5072491;28;20060;-48
2021/12/29 11:11:45;;;;;;;22.88;9.15;;;7.90;99.90;;;;;;5072316;28;20058;-62
2021/12/29 11:14:18;;;;;;;21.27;8.50;;;7.80;99.90;;;;;;5072531;28;20110;-62
2021/12/29 11:17:09;;;;;;;18.33;7.78;;;7.90;99.90;;;;;;5072254;28;20052;-62
2021/12/29 11:19:37;;;;;;;22.35;8.35;;;7.90;99.90;;;;;;5072203;28;20059;-49
2021/12/29 11:22:16;;;;;;;23.00;8.05;;;7.80;99.90;;;;;;5072245;28;20111;-49
2021/12/29 11:24:44;;;;;;;20.33;7.32;;;7.80;99.90;;;;;;5072553;28;20049;-50
2021/12/29 11:27:18;;;;;;;24.92;8.18;;;7.90;99.90;;;;;;5072647;28;20044;-50
2021/12/29 11:29:54;;;;;;;22.75;8.15;;;7.80;99.90;;;;;;5072251;28;20036;-62
2021/12/29 11:32:25;;;;;;;24.17;7.90;;;7.80;99.90;;;;;;5072134;28;20040;-62
2021/12/29 11:35:20;;;;;;;18.02;7.82;;;7.90;99.90;;;;;;5072179;28;20492;-63
2021/12/29 11:37:52;;;;;;;21.25;7.80;;;7.80;99.90;;;;;;5072111;28;20404;-62
2021/12/29 11:40:22;;;;;;;22.52;8.05;;;7.90;99.90;;;;;;5072088;28;20048;-62
2021/12/29 11:42:49;;;;;;;24.50;8.18;;;7.90;99.90;;;;;;5072061;28;20055;-62
2021/12/29 11:45:15;;;;;;;18.27;7.95;;;8.00;99.90;;;;;;5072145;28;20036;-62
2021/12/29 11:47:42;;;;;;;26.63;9.02;;;7.90;99.90;;;;;;5072165;28;20045;-62
2021/12/29 11:50:11;;;;;;;20.17;8.77;;;7.90;99.90;;;;;;5065521;28;20132;-62
2021/12/29 11:53:01;;;;;;;25.85;8.45;;;7.90;99.90;;;;;;5051556;28;20469;-49
2021/12/29 11:55:39;;;;;;;25.25;8.25;;;8.00;99.90;;;;;;5065109;28;20036;-62
2021/12/29 11:58:11;;;;;;;24.15;9.23;;;8.00;99.90;;;;;;5071879;28;20073;-63
2021/12/29 12:00:37;;;;;;;23.52;8.98;;;8.00;99.90;;;;;;5071796;28;20102;-62
2021/12/29 12:03:16;;;;;;;24.30;7.68;;;7.90;99.90;;;;;;5070757;28;20435;-62
2021/12/29 12:05:44;;;;;;;21.80;8.05;;;7.90;99.90;;;;;;5071834;28;20087;-62
2021/12/29 12:08:19;;;;;;;26.50;7.32;;;7.90;99.90;;;;;;5071811;28;20496;-62
2021/12/29 12:10:47;;;;;;;20.80;7.97;;;7.90;99.90;;;;;;5070443;28;20090;-62
2021/12/29 12:13:24;;;;;;;24.52;8.38;;;8.00;99.90;;;;;;5071813;28;20045;-62
2021/12/29 12:15:51;;;;;;;26.80;8.52;;;7.80;99.90;;;;;;5071701;28;20037;-61
2021/12/29 12:18:17;;;;;;;26.23;8.45;;;7.90;99.90;;;;;;5071505;28;20107;-62
2021/12/29 12:20:49;;;;;;;25.35;8.90;;;7.90;99.90;;;;;;5071959;28;20079;-62
2021/12/29 12:23:27;;;;;;;27.05;8.43;;;7.90;99.90;;;;;;5070484;28;20090;-62
2021/12/29 12:25:55;;;;;;;24.15;8.38;;;7.90;99.90;;;;;;5050154;28;20587;-62
2021/12/29 12:28:21;;;;;;;23.27;8.38;;;7.90;99.90;;;;;;5055645;28;20052;-62
2021/12/29 12:30:51;;;;;;;21.92;8.30;;;7.90;99.90;;;;;;5054047;28;20120;-62
2021/12/29 12:33:29;;;;;;;21.05;7.88;;;7.90;99.90;;;;;;5055690;28;20044;-62
2021/12/29 12:36:07;;;;;;;23.95;8.02;;;7.90;99.90;;;;;;5055322;28;20041;-62
2021/12/29 12:38:35;;;;;;;17.58;6.75;;;7.90;99.90;;;;;;5055542;28;20044;-62
2021/12/29 12:41:16;;;;;;;18.67;7.30;;;7.90;99.90;;;;;;5055078;28;20087;-48
2021/12/29 12:43:53;;;;;;;21.42;8.10;;;8.00;99.90;;;;;;5043374;28;20125;-62
2021/12/29 12:46:32;;;;;;;27.92;8.20;;;8.00;99.90;;;;;;5045809;28;20313;-62